SHU601 UIII-UIUU
Flight info
| Callsign | SHU601 |
|---|---|
| Flight time | 0h 30m |
| Altitude | 15000 |
| Route | GOLOS4C GOLOS A810 KUDAR A806 OSTUN OSTUN5N |
| Aircraft | A320/M-SDE3FGHIRWY/LB1 |
Departure
| Time | 2026-05-01 11:31 |
|---|---|
| Airport | Irkutsk International Airport (UIII) |
Arrival
| Time | 2026-05-01 12:02 |
|---|---|
| Airport | Baikal International Airport (UIUU) |
| Time | Latitude | Longitude | Altitude | Speed | Heading |
|---|---|---|---|---|---|
| 2026-05-01 10:59 | 52.27138 | 104.36805 | 1586 ft | 0 kts | 20° |
| 2026-05-01 11:15 | 52.27137 | 104.36804 | 1586 ft | 1 kts | 20° |
| 2026-05-01 11:15 | 52.27123 | 104.36795 | 1586 ft | 3 kts | 22° |
| 2026-05-01 11:15 | 52.27104 | 104.36782 | 1586 ft | 3 kts | 26° |
| 2026-05-01 11:15 | 52.27086 | 104.36767 | 1586 ft | 3 kts | 33° |
| 2026-05-01 11:16 | 52.27071 | 104.36748 | 1586 ft | 2 kts | 44° |
| 2026-05-01 11:16 | 52.27068 | 104.36743 | 1586 ft | 0 kts | 46° |
| 2026-05-01 11:19 | 52.27068 | 104.36744 | 1586 ft | 1 kts | 46° |
| 2026-05-01 11:19 | 52.27071 | 104.36761 | 1586 ft | 3 kts | 75° |
| 2026-05-01 11:20 | 52.27068 | 104.36784 | 1587 ft | 3 kts | 115° |
| 2026-05-01 11:20 | 52.27060 | 104.36812 | 1587 ft | 4 kts | 111° |
| 2026-05-01 11:20 | 52.27048 | 104.36865 | 1589 ft | 6 kts | 110° |
| 2026-05-01 11:20 | 52.27032 | 104.36937 | 1590 ft | 7 kts | 109° |
| 2026-05-01 11:21 | 52.27013 | 104.37025 | 1592 ft | 9 kts | 109° |
| 2026-05-01 11:21 | 52.26990 | 104.37130 | 1594 ft | 10 kts | 107° |
| 2026-05-01 11:21 | 52.26999 | 104.37251 | 1600 ft | 11 kts | 85° |
| 2026-05-01 11:21 | 52.26974 | 104.37380 | 1599 ft | 13 kts | 112° |
| 2026-05-01 11:22 | 52.26939 | 104.37521 | 1607 ft | 14 kts | 112° |
| 2026-05-01 11:22 | 52.26897 | 104.37673 | 1615 ft | 15 kts | 112° |
| 2026-05-01 11:22 | 52.26854 | 104.37840 | 1610 ft | 17 kts | 112° |
| 2026-05-01 11:22 | 52.26805 | 104.38018 | 1617 ft | 18 kts | 114° |
| 2026-05-01 11:23 | 52.26754 | 104.38208 | 1618 ft | 19 kts | 109° |
| 2026-05-01 11:23 | 52.26702 | 104.38410 | 1623 ft | 20 kts | 112° |
| 2026-05-01 11:23 | 52.26645 | 104.38624 | 1629 ft | 21 kts | 113° |
| 2026-05-01 11:23 | 52.26586 | 104.38848 | 1633 ft | 22 kts | 113° |
| 2026-05-01 11:24 | 52.26525 | 104.39083 | 1638 ft | 23 kts | 113° |
| 2026-05-01 11:24 | 52.26458 | 104.39328 | 1643 ft | 24 kts | 114° |
| 2026-05-01 11:24 | 52.26318 | 104.39852 | 1661 ft | 26 kts | 113° |
| 2026-05-01 11:25 | 52.26244 | 104.40130 | 1668 ft | 27 kts | 114° |
| 2026-05-01 11:25 | 52.26089 | 104.40713 | 1679 ft | 29 kts | 114° |
| 2026-05-01 11:25 | 52.26010 | 104.41007 | 1683 ft | 27 kts | 113° |
| 2026-05-01 11:26 | 52.26019 | 104.41169 | 1693 ft | 15 kts | 40° |
| 2026-05-01 11:26 | 52.26113 | 104.41243 | 1685 ft | 0 kts | 23° |
| 2026-05-01 11:29 | 52.26115 | 104.41244 | 1685 ft | 1 kts | 23° |
| 2026-05-01 11:29 | 52.26184 | 104.41292 | 1685 ft | 9 kts | 23° |
| 2026-05-01 11:30 | 52.26249 | 104.41221 | 1687 ft | 15 kts | 316° |
| 2026-05-01 11:30 | 52.26273 | 104.41111 | 1679 ft | 14 kts | 295° |
| 2026-05-01 11:30 | 52.26403 | 104.40641 | 1672 ft | 90 kts | 294° |
| 2026-05-01 11:30 | 52.26769 | 104.39284 | 1780 ft | 148 kts | 296° |
| 2026-05-01 11:31 | 52.27228 | 104.37667 | 2237 ft | 174 kts | 296° |
| 2026-05-01 11:31 | 52.27776 | 104.35776 | 2912 ft | 193 kts | 297° |
| 2026-05-01 11:31 | 52.28356 | 104.33674 | 3502 ft | 216 kts | 295° |
| 2026-05-01 11:31 | 52.28965 | 104.31323 | 4010 ft | 239 kts | 295° |
| 2026-05-01 11:32 | 52.29948 | 104.29051 | 4818 ft | 248 kts | 324° |
| 2026-05-01 11:32 | 52.31577 | 104.28182 | 5739 ft | 255 kts | 359° |
| 2026-05-01 11:32 | 52.33344 | 104.28644 | 6656 ft | 262 kts | 13° |
| 2026-05-01 11:32 | 52.35085 | 104.29536 | 6989 ft | 263 kts | 16° |
| 2026-05-01 11:33 | 52.36823 | 104.30487 | 7109 ft | 262 kts | 15° |
| 2026-05-01 11:33 | 52.38541 | 104.31330 | 7144 ft | 261 kts | 13° |
| 2026-05-01 11:33 | 52.40339 | 104.32084 | 7325 ft | 265 kts | 11° |
| 2026-05-01 11:33 | 52.42126 | 104.32746 | 8394 ft | 264 kts | 11° |
| 2026-05-01 11:34 | 52.43798 | 104.34062 | 9400 ft | 274 kts | 35° |
| 2026-05-01 11:34 | 52.44995 | 104.36566 | 10299 ft | 292 kts | 59° |
| 2026-05-01 11:34 | 52.45403 | 104.39955 | 10640 ft | 327 kts | 90° |
| 2026-05-01 11:34 | 52.45082 | 104.43804 | 11215 ft | 344 kts | 98° |
| 2026-05-01 11:35 | 52.44583 | 104.47627 | 12023 ft | 350 kts | 101° |
| 2026-05-01 11:35 | 52.44006 | 104.51529 | 12880 ft | 355 kts | 101° |
| 2026-05-01 11:35 | 52.43387 | 104.55531 | 13756 ft | 360 kts | 104° |
| 2026-05-01 11:35 | 52.42580 | 104.59449 | 14508 ft | 365 kts | 106° |
| 2026-05-01 11:36 | 52.41787 | 104.63413 | 14964 ft | 370 kts | 105° |
| 2026-05-01 11:36 | 52.41020 | 104.67387 | 15102 ft | 369 kts | 104° |
| 2026-05-01 11:36 | 52.40277 | 104.71323 | 15133 ft | 357 kts | 104° |
| 2026-05-01 11:36 | 52.39552 | 104.75179 | 15134 ft | 353 kts | 104° |
| 2026-05-01 11:37 | 52.38827 | 104.79016 | 15132 ft | 353 kts | 104° |
| 2026-05-01 11:37 | 52.38095 | 104.82857 | 15134 ft | 353 kts | 104° |
| 2026-05-01 11:37 | 52.37361 | 104.86681 | 15130 ft | 353 kts | 104° |
| 2026-05-01 11:37 | 52.36621 | 104.90511 | 15133 ft | 353 kts | 104° |
| 2026-05-01 11:38 | 52.35880 | 104.94331 | 15129 ft | 353 kts | 104° |
| 2026-05-01 11:38 | 52.35140 | 104.98146 | 15131 ft | 352 kts | 104° |
| 2026-05-01 11:38 | 52.34399 | 105.01973 | 15150 ft | 352 kts | 104° |
| 2026-05-01 11:38 | 52.33664 | 105.05784 | 15149 ft | 352 kts | 104° |
| 2026-05-01 11:39 | 52.32927 | 105.09605 | 15144 ft | 352 kts | 104° |
| 2026-05-01 11:39 | 52.32188 | 105.13418 | 15146 ft | 352 kts | 104° |
| 2026-05-01 11:39 | 52.31448 | 105.17221 | 15145 ft | 352 kts | 104° |
| 2026-05-01 11:39 | 52.30701 | 105.21030 | 15140 ft | 352 kts | 104° |
| 2026-05-01 11:40 | 52.29951 | 105.24837 | 15143 ft | 352 kts | 104° |
| 2026-05-01 11:40 | 52.29203 | 105.28640 | 15145 ft | 352 kts | 104° |
| 2026-05-01 11:40 | 52.28514 | 105.32477 | 15146 ft | 350 kts | 98° |
| 2026-05-01 11:40 | 52.28236 | 105.36383 | 15143 ft | 345 kts | 86° |
| 2026-05-01 11:41 | 52.28305 | 105.40285 | 15155 ft | 343 kts | 83° |
| 2026-05-01 11:41 | 52.28390 | 105.44173 | 15154 ft | 343 kts | 83° |
| 2026-05-01 11:41 | 52.28470 | 105.48057 | 15154 ft | 343 kts | 83° |
| 2026-05-01 11:41 | 52.28544 | 105.51967 | 15168 ft | 343 kts | 83° |
| 2026-05-01 11:42 | 52.28619 | 105.55865 | 15164 ft | 343 kts | 83° |
| 2026-05-01 11:42 | 52.28694 | 105.59738 | 15162 ft | 343 kts | 83° |
| 2026-05-01 11:42 | 52.28767 | 105.63646 | 15171 ft | 342 kts | 83° |
| 2026-05-01 11:42 | 52.28838 | 105.67526 | 15173 ft | 343 kts | 83° |
| 2026-05-01 11:43 | 52.28909 | 105.71425 | 15178 ft | 343 kts | 84° |
| 2026-05-01 11:43 | 52.28981 | 105.75320 | 15173 ft | 342 kts | 84° |
| 2026-05-01 11:43 | 52.29050 | 105.79196 | 15169 ft | 342 kts | 83° |
| 2026-05-01 11:44 | 52.29186 | 105.86919 | 15182 ft | 342 kts | 84° |
| 2026-05-01 11:44 | 52.29247 | 105.90802 | 15181 ft | 342 kts | 84° |
| 2026-05-01 11:44 | 52.29308 | 105.94696 | 15181 ft | 342 kts | 84° |
| 2026-05-01 11:44 | 52.29371 | 105.98576 | 15180 ft | 342 kts | 84° |
| 2026-05-01 11:45 | 52.29435 | 106.02463 | 15206 ft | 342 kts | 83° |
| 2026-05-01 11:45 | 52.29497 | 106.06353 | 15206 ft | 342 kts | 83° |
| 2026-05-01 11:45 | 52.29556 | 106.10227 | 15205 ft | 341 kts | 83° |
| 2026-05-01 11:45 | 52.29613 | 106.14098 | 15204 ft | 341 kts | 84° |
| 2026-05-01 11:46 | 52.29667 | 106.17960 | 15199 ft | 340 kts | 84° |
| 2026-05-01 11:46 | 52.29720 | 106.21829 | 15196 ft | 340 kts | 84° |
| 2026-05-01 11:46 | 52.29771 | 106.25697 | 15195 ft | 340 kts | 84° |
| 2026-05-01 11:46 | 52.29823 | 106.29556 | 15194 ft | 340 kts | 84° |
| 2026-05-01 11:47 | 52.29857 | 106.32112 | 15194 ft | 340 kts | 84° |
| 2026-05-01 11:47 | 52.29908 | 106.35957 | 15192 ft | 340 kts | 84° |
| 2026-05-01 11:47 | 52.29959 | 106.39811 | 15192 ft | 340 kts | 84° |
| 2026-05-01 11:47 | 52.29964 | 106.43670 | 15192 ft | 342 kts | 89° |
| 2026-05-01 11:48 | 52.29522 | 106.47516 | 15192 ft | 348 kts | 104° |
| 2026-05-01 11:48 | 52.28526 | 106.51141 | 15185 ft | 353 kts | 118° |
| 2026-05-01 11:48 | 52.27042 | 106.54356 | 15195 ft | 355 kts | 128° |
| 2026-05-01 11:48 | 52.25474 | 106.57420 | 14958 ft | 349 kts | 128° |
| 2026-05-01 11:49 | 52.23937 | 106.60447 | 14702 ft | 343 kts | 127° |
| 2026-05-01 11:49 | 52.22431 | 106.63427 | 14450 ft | 340 kts | 127° |
| 2026-05-01 11:49 | 52.20935 | 106.66395 | 14204 ft | 338 kts | 127° |
| 2026-05-01 11:49 | 52.19947 | 106.68353 | 14047 ft | 337 kts | 127° |
| 2026-05-01 11:50 | 52.18486 | 106.71241 | 13784 ft | 335 kts | 127° |
| 2026-05-01 11:50 | 52.17002 | 106.74174 | 13510 ft | 334 kts | 128° |
| 2026-05-01 11:50 | 52.15507 | 106.77125 | 13229 ft | 333 kts | 128° |
| 2026-05-01 11:50 | 52.14055 | 106.79984 | 12964 ft | 331 kts | 128° |
| 2026-05-01 11:51 | 52.12587 | 106.82863 | 12697 ft | 330 kts | 128° |
| 2026-05-01 11:51 | 52.11123 | 106.85730 | 12434 ft | 329 kts | 128° |
| 2026-05-01 11:51 | 52.09659 | 106.88581 | 12172 ft | 328 kts | 129° |
| 2026-05-01 11:51 | 52.08220 | 106.91338 | 11919 ft | 327 kts | 129° |
| 2026-05-01 11:52 | 52.06749 | 106.94139 | 11665 ft | 327 kts | 129° |
| 2026-05-01 11:52 | 52.05167 | 106.96776 | 11411 ft | 326 kts | 141° |
| 2026-05-01 11:52 | 52.03244 | 106.98664 | 11155 ft | 322 kts | 158° |
| 2026-05-01 11:52 | 52.01106 | 106.99672 | 10721 ft | 319 kts | 175° |
| 2026-05-01 11:53 | 51.98915 | 106.99749 | 10294 ft | 315 kts | 188° |
| 2026-05-01 11:53 | 51.96724 | 106.99453 | 9832 ft | 315 kts | 188° |
| 2026-05-01 11:53 | 51.94601 | 106.99182 | 9832 ft | 295 kts | 188° |
| 2026-05-01 11:53 | 51.92609 | 106.98936 | 9734 ft | 282 kts | 188° |
| 2026-05-01 11:54 | 51.90816 | 106.98709 | 9410 ft | 279 kts | 188° |
| 2026-05-01 11:54 | 51.88933 | 106.98467 | 9059 ft | 278 kts | 189° |
| 2026-05-01 11:54 | 51.87043 | 106.98358 | 8730 ft | 279 kts | 177° |
| 2026-05-01 11:54 | 51.85250 | 106.99236 | 8456 ft | 280 kts | 153° |
| 2026-05-01 11:55 | 51.83744 | 107.01201 | 7895 ft | 284 kts | 128° |
| 2026-05-01 11:55 | 51.82576 | 107.03861 | 7119 ft | 297 kts | 123° |
| 2026-05-01 11:55 | 51.81389 | 107.06659 | 6485 ft | 302 kts | 123° |
| 2026-05-01 11:55 | 51.80232 | 107.09382 | 6178 ft | 292 kts | 123° |
| 2026-05-01 11:56 | 51.79058 | 107.12140 | 5427 ft | 301 kts | 123° |
| 2026-05-01 11:56 | 51.77956 | 107.14985 | 5032 ft | 293 kts | 111° |
| 2026-05-01 11:56 | 51.77603 | 107.18137 | 4658 ft | 281 kts | 84° |
| 2026-05-01 11:56 | 51.77936 | 107.21179 | 4295 ft | 273 kts | 75° |
| 2026-05-01 11:57 | 51.78286 | 107.24133 | 4056 ft | 260 kts | 86° |
| 2026-05-01 11:57 | 51.77679 | 107.26675 | 4018 ft | 239 kts | 132° |
| 2026-05-01 11:57 | 51.76299 | 107.27722 | 3875 ft | 221 kts | 180° |
| 2026-05-01 11:57 | 51.74992 | 107.26860 | 3725 ft | 198 kts | 233° |
| 2026-05-01 11:58 | 51.74689 | 107.24925 | 3613 ft | 173 kts | 288° |
| 2026-05-01 11:58 | 51.75444 | 107.23790 | 3477 ft | 146 kts | 351° |
| 2026-05-01 11:58 | 51.76837 | 107.25821 | 3466 ft | 140 kts | 43° |
| 2026-05-01 11:59 | 51.77498 | 107.26952 | 3472 ft | 138 kts | 43° |
| 2026-05-01 11:59 | 51.78135 | 107.28089 | 3391 ft | 137 kts | 43° |
| 2026-05-01 11:59 | 51.78677 | 107.29381 | 3257 ft | 146 kts | 58° |
| 2026-05-01 12:00 | 51.79393 | 107.32555 | 2880 ft | 144 kts | 70° |
| 2026-05-01 12:00 | 51.79636 | 107.34108 | 2686 ft | 141 kts | 73° |
| 2026-05-01 12:00 | 51.79894 | 107.37213 | 2348 ft | 138 kts | 77° |
| 2026-05-01 12:01 | 51.80103 | 107.38730 | 2139 ft | 137 kts | 73° |
| 2026-05-01 12:01 | 51.80296 | 107.40226 | 1981 ft | 137 kts | 75° |
| 2026-05-01 12:01 | 51.80500 | 107.41724 | 1744 ft | 136 kts | 75° |
| 2026-05-01 12:01 | 51.80684 | 107.43090 | 1695 ft | 110 kts | 80° |
| 2026-05-01 12:02 | 51.80793 | 107.43922 | 1688 ft | 44 kts | 77° |
| 2026-05-01 12:02 | 51.80823 | 107.44235 | 1687 ft | 15 kts | 110° |
| 2026-05-01 12:02 | 51.80740 | 107.44297 | 1688 ft | 9 kts | 167° |
| 2026-05-01 12:02 | 51.80738 | 107.44298 | 1685 ft | 0 kts | 167° |